< < Back
Terminal Aerodrome Forecast


Current Version              Previous Versions:   1  2  3  4  5  6  7  8  9  

Terminal Aerodrome Forecast

192
FTUS42 KGSP 021740
TAFAVL
TAF
KAVL 021740Z 0218/0318 16006KT P6SM VCTS BKN040CB
      TEMPO 0218/0220 VRB15G25KT 2SM -TSRA BR OVC025CB
     FM022000 20006KT P6SM -SHRA VCTS OVC060CB
     FM030300 20004KT P6SM -SHRA OVC015 PROB30 0303/0306 4SM TSRA
      OVC007CB
     FM030600 33005KT P6SM OVC015
     FM030900 33005KT P6SM OVC025
     FM031500 33010KT P6SM BKN040=



Latest METAR

067
SAUS70 KWBC 021900 RRF
MTRAVL
METAR KAVL 021854Z VRB04KT 10SM -RA FEW029 SCT048 BKN060 23/16 A3000 RMK
AO2 LTG DSNT NE AND E AND SW RAB15 TSB21E36 SLP136 P0000
T02330156


USA.gov is the U.S. government's official web portal to all federal, state and local government web resources and services.